Time;durP1;ratioP1;P1;durP2;ratioP2;P2;SDS_P1;SDS_P2;PMS_P1;PMS_P2;Temp;Humidity;BMP_temperature;BMP_pressure;BME280_temperature;BME280_humidity;BME280_pressure;Samples;Min_cycle;Max_cycle;Signal;HPM_P1;HPM_P2
2023/03/10 00:00:04;;;;;;;1.7;1.7;;;;;;;4.7;100.0;98550;;;;
2023/03/10 00:01:00;;;;;;;1.7;1.7;;;;;;;4.7;100.0;98550;;;;
2023/03/10 00:02:00;;;;;;;1.7;1.7;;;;;;;4.6;100.0;98550;;;;
2023/03/10 00:03:00;;;;;;;1.7;1.7;;;;;;;4.6;100.0;98550;;;;
2023/03/10 00:04:01;;;;;;;1.7;1.7;;;;;;;4.6;100.0;98550;;;;
2023/03/10 00:05:01;;;;;;;1.7;1.7;;;;;;;4.6;100.0;98550;;;;
2023/03/10 00:06:01;;;;;;;1.7;1.7;;;;;;;4.6;100.0;98540;;;;
2023/03/10 00:07:00;;;;;;;1.7;1.7;;;;;;;4.6;100.0;98540;;;;
2023/03/10 00:08:00;;;;;;;1.7;1.7;;;;;;;4.5;100.0;98540;;;;
2023/03/10 00:09:01;;;;;;;1.7;1.7;;;;;;;4.5;100.0;98540;;;;
2023/03/10 00:10:00;;;;;;;1.7;1.7;;;;;;;4.6;100.0;98540;;;;
2023/03/10 00:11:00;;;;;;;1.7;1.7;;;;;;;4.6;100.0;98540;;;;
2023/03/10 00:12:00;;;;;;;1.7;1.7;;;;;;;4.5;100.0;98530;;;;
2023/03/10 00:13:00;;;;;;;1.7;1.7;;;;;;;4.5;100.0;98530;;;;
2023/03/10 00:14:00;;;;;;;1.7;1.7;;;;;;;4.5;100.0;98530;;;;
2023/03/10 00:15:00;;;;;;;1.7;1.7;;;;;;;4.5;100.0;98530;;;;
2023/03/10 00:16:00;;;;;;;1.9;1.9;;;;;;;4.4;100.0;98520;;;;
2023/03/10 00:17:00;;;;;;;1.9;1.9;;;;;;;4.4;100.0;98520;;;;
2023/03/10 00:18:00;;;;;;;1.9;1.9;;;;;;;4.4;100.0;98520;;;;
2023/03/10 00:19:00;;;;;;;1.9;1.9;;;;;;;4.4;100.0;98520;;;;
2023/03/10 00:20:00;;;;;;;1.9;1.9;;;;;;;4.4;100.0;98520;;;;
2023/03/10 00:21:00;;;;;;;1.9;1.9;;;;;;;4.4;100.0;98520;;;;
2023/03/10 00:22:02;;;;;;;1.9;1.9;;;;;;;4.4;100.0;98530;;;;
2023/03/10 00:23:00;;;;;;;1.9;1.9;;;;;;;4.4;100.0;98530;;;;
2023/03/10 00:24:00;;;;;;;1.9;1.9;;;;;;;4.4;100.0;98530;;;;
2023/03/10 00:25:00;;;;;;;1.9;1.9;;;;;;;4.4;100.0;98530;;;;
2023/03/10 00:26:00;;;;;;;1.9;1.9;;;;;;;4.4;100.0;98530;;;;
2023/03/10 00:27:00;;;;;;;1.9;1.9;;;;;;;4.4;100.0;98530;;;;
2023/03/10 00:28:00;;;;;;;1.9;1.9;;;;;;;4.3;100.0;98530;;;;
2023/03/10 00:29:00;;;;;;;1.9;1.9;;;;;;;4.3;100.0;98530;;;;
2023/03/10 00:30:00;;;;;;;1.9;1.9;;;;;;;4.5;100.0;98540;;;;
2023/03/10 00:31:03;;;;;;;1.9;1.9;;;;;;;4.5;100.0;98540;;;;
2023/03/10 00:32:00;;;;;;;1.9;1.9;;;;;;;4.4;100.0;98540;;;;
2023/03/10 00:33:01;;;;;;;1.9;1.9;;;;;;;4.4;100.0;98540;;;;
2023/03/10 00:34:00;;;;;;;1.9;1.9;;;;;;;4.4;100.0;98540;;;;
2023/03/10 00:35:01;;;;;;;1.9;1.9;;;;;;;4.4;100.0;98540;;;;
2023/03/10 00:36:04;;;;;;;1.9;1.9;;;;;;;4.5;100.0;98540;;;;
2023/03/10 00:37:00;;;;;;;1.9;1.9;;;;;;;4.5;100.0;98540;;;;
2023/03/10 00:38:01;;;;;;;1.9;1.9;;;;;;;4.5;100.0;98540;;;;
2023/03/10 00:39:01;;;;;;;1.9;1.9;;;;;;;4.5;100.0;98540;;;;
2023/03/10 00:40:00;;;;;;;1.9;1.9;;;;;;;4.4;100.0;98530;;;;
2023/03/10 00:41:01;;;;;;;1.9;1.9;;;;;;;4.4;100.0;98530;;;;
2023/03/10 00:42:01;;;;;;;1.9;1.9;;;;;;;4.4;100.0;98530;;;;
2023/03/10 00:43:00;;;;;;;1.9;1.9;;;;;;;4.4;100.0;98530;;;;
2023/03/10 00:44:01;;;;;;;1.9;1.9;;;;;;;4.4;100.0;98540;;;;
2023/03/10 00:45:00;;;;;;;1.9;1.9;;;;;;;4.4;100.0;98540;;;;
2023/03/10 00:46:01;;;;;;;1.9;1.9;;;;;;;4.5;100.0;98530;;;;
2023/03/10 00:47:00;;;;;;;1.9;1.9;;;;;;;4.5;100.0;98530;;;;
2023/03/10 00:48:00;;;;;;;1.9;1.9;;;;;;;4.6;100.0;98530;;;;
2023/03/10 00:49:00;;;;;;;1.9;1.9;;;;;;;4.6;100.0;98530;;;;
2023/03/10 00:50:00;;;;;;;1.9;1.9;;;;;;;4.5;100.0;98520;;;;
2023/03/10 00:51:01;;;;;;;1.9;1.9;;;;;;;4.5;100.0;98520;;;;
2023/03/10 00:52:00;;;;;;;1.9;1.9;;;;;;;4.4;100.0;98530;;;;
2023/03/10 00:53:00;;;;;;;1.9;1.9;;;;;;;4.4;100.0;98530;;;;
2023/03/10 00:54:01;;;;;;;1.9;1.9;;;;;;;4.6;100.0;98530;;;;
2023/03/10 00:55:00;;;;;;;1.9;1.9;;;;;;;4.6;100.0;98530;;;;
2023/03/10 00:56:00;;;;;;;2.1;2.1;;;;;;;4.7;100.0;98530;;;;
2023/03/10 00:57:00;;;;;;;2.1;2.1;;;;;;;4.7;100.0;98530;;;;
2023/03/10 00:58:00;;;;;;;2.1;2.1;;;;;;;4.5;100.0;98530;;;;
2023/03/10 00:59:00;;;;;;;2.1;2.1;;;;;;;4.5;100.0;98530;;;;
2023/03/10 01:00:00;;;;;;;2.1;2.1;;;;;;;4.5;100.0;98540;;;;
2023/03/10 01:01:01;;;;;;;2.1;2.1;;;;;;;4.5;100.0;98540;;;;
2023/03/10 01:02:00;;;;;;;2.1;2.1;;;;;;;4.6;100.0;98540;;;;
2023/03/10 01:03:00;;;;;;;2.1;2.1;;;;;;;4.6;100.0;98540;;;;
2023/03/10 01:04:02;;;;;;;2.1;2.1;;;;;;;4.6;100.0;98540;;;;
2023/03/10 01:05:00;;;;;;;2.1;2.1;;;;;;;4.6;100.0;98540;;;;
2023/03/10 01:06:00;;;;;;;2.1;2.1;;;;;;;4.5;100.0;98540;;;;
2023/03/10 01:07:00;;;;;;;2.1;2.1;;;;;;;4.5;100.0;98540;;;;
2023/03/10 01:08:00;;;;;;;2.1;2.1;;;;;;;4.6;100.0;98540;;;;
2023/03/10 01:09:01;;;;;;;2.1;2.1;;;;;;;4.6;100.0;98540;;;;
2023/03/10 01:10:00;;;;;;;2.1;2.1;;;;;;;4.6;100.0;98540;;;;
2023/03/10 01:11:00;;;;;;;2.1;2.1;;;;;;;4.6;100.0;98540;;;;
2023/03/10 01:12:00;;;;;;;2.1;2.1;;;;;;;4.6;100.0;98540;;;;
2023/03/10 01:13:00;;;;;;;2.1;2.1;;;;;;;4.6;100.0;98540;;;;
2023/03/10 01:14:03;;;;;;;2.1;2.1;;;;;;;4.6;100.0;98540;;;;
2023/03/10 01:15:00;;;;;;;2.1;2.1;;;;;;;4.6;100.0;98540;;;;
2023/03/10 01:16:00;;;;;;;1.7;1.7;;;;;;;4.7;100.0;98540;;;;
2023/03/10 01:17:00;;;;;;;1.7;1.7;;;;;;;4.7;100.0;98540;;;;
2023/03/10 01:18:02;;;;;;;1.7;1.7;;;;;;;4.7;100.0;98540;;;;
2023/03/10 01:19:00;;;;;;;1.7;1.7;;;;;;;4.7;100.0;98540;;;;
2023/03/10 01:20:00;;;;;;;1.7;1.7;;;;;;;4.7;100.0;98530;;;;
2023/03/10 01:21:00;;;;;;;1.7;1.7;;;;;;;4.7;100.0;98530;;;;
2023/03/10 01:22:00;;;;;;;1.7;1.7;;;;;;;4.7;100.0;98530;;;;
2023/03/10 01:23:00;;;;;;;1.7;1.7;;;;;;;4.7;100.0;98530;;;;
2023/03/10 01:24:01;;;;;;;1.7;1.7;;;;;;;4.8;100.0;98530;;;;
2023/03/10 01:25:00;;;;;;;1.7;1.7;;;;;;;4.8;100.0;98530;;;;
2023/03/10 01:26:00;;;;;;;1.7;1.7;;;;;;;4.7;100.0;98530;;;;
2023/03/10 01:27:00;;;;;;;1.7;1.7;;;;;;;4.7;100.0;98530;;;;
2023/03/10 01:28:00;;;;;;;1.7;1.7;;;;;;;4.7;100.0;98530;;;;
2023/03/10 01:29:00;;;;;;;1.7;1.7;;;;;;;4.7;100.0;98530;;;;
2023/03/10 01:30:00;;;;;;;1.7;1.7;;;;;;;4.8;100.0;98520;;;;
2023/03/10 01:31:00;;;;;;;1.7;1.7;;;;;;;4.8;100.0;98520;;;;
2023/03/10 01:32:00;;;;;;;1.7;1.7;;;;;;;4.7;100.0;98520;;;;
2023/03/10 01:33:00;;;;;;;1.7;1.7;;;;;;;4.7;100.0;98520;;;;
2023/03/10 01:34:00;;;;;;;1.7;1.7;;;;;;;4.7;100.0;98520;;;;
2023/03/10 01:35:00;;;;;;;1.7;1.7;;;;;;;4.7;100.0;98520;;;;
2023/03/10 01:36:01;;;;;;;1.9;1.9;;;;;;;4.8;100.0;98520;;;;
2023/03/10 01:37:00;;;;;;;1.9;1.9;;;;;;;4.8;100.0;98520;;;;
2023/03/10 01:38:00;;;;;;;1.9;1.9;;;;;;;4.8;100.0;98520;;;;
2023/03/10 01:39:00;;;;;;;1.9;1.9;;;;;;;4.8;100.0;98520;;;;
2023/03/10 01:40:03;;;;;;;1.9;1.9;;;;;;;4.8;100.0;98510;;;;
2023/03/10 01:41:00;;;;;;;1.9;1.9;;;;;;;4.8;100.0;98510;;;;
2023/03/10 01:42:00;;;;;;;1.9;1.9;;;;;;;4.8;100.0;98510;;;;
2023/03/10 01:43:10;;;;;;;1.9;1.9;;;;;;;4.8;100.0;98510;;;;
2023/03/10 01:44:02;;;;;;;1.9;1.9;;;;;;;4.8;100.0;98510;;;;
2023/03/10 01:45:04;;;;;;;1.9;1.9;;;;;;;4.8;100.0;98510;;;;
2023/03/10 01:46:00;;;;;;;1.9;1.9;;;;;;;4.8;100.0;98510;;;;
2023/03/10 01:47:00;;;;;;;1.9;1.9;;;;;;;4.8;100.0;98510;;;;
2023/03/10 01:48:00;;;;;;;1.9;1.9;;;;;;;4.7;100.0;98500;;;;
2023/03/10 01:49:05;;;;;;;1.9;1.9;;;;;;;4.7;100.0;98500;;;;
2023/03/10 01:50:01;;;;;;;1.9;1.9;;;;;;;4.8;100.0;98500;;;;
2023/03/10 01:51:01;;;;;;;1.9;1.9;;;;;;;4.8;100.0;98500;;;;
2023/03/10 01:52:04;;;;;;;1.9;1.9;;;;;;;4.8;100.0;98500;;;;
2023/03/10 01:53:00;;;;;;;1.9;1.9;;;;;;;4.8;100.0;98500;;;;
2023/03/10 01:54:03;;;;;;;1.9;1.9;;;;;;;4.8;100.0;98500;;;;
2023/03/10 01:55:06;;;;;;;1.9;1.9;;;;;;;4.8;100.0;98500;;;;
2023/03/10 01:56:02;;;;;;;1.8;1.8;;;;;;;4.9;100.0;98500;;;;
2023/03/10 01:57:01;;;;;;;1.8;1.8;;;;;;;4.9;100.0;98500;;;;
2023/03/10 01:58:02;;;;;;;1.8;1.8;;;;;;;4.9;100.0;98500;;;;
2023/03/10 01:59:01;;;;;;;1.8;1.8;;;;;;;4.9;100.0;98500;;;;
2023/03/10 02:00:01;;;;;;;1.8;1.8;;;;;;;4.9;100.0;98500;;;;
2023/03/10 02:01:00;;;;;;;1.8;1.8;;;;;;;4.9;100.0;98500;;;;
2023/03/10 02:02:01;;;;;;;1.8;1.8;;;;;;;4.9;100.0;98490;;;;
2023/03/10 02:03:02;;;;;;;1.8;1.8;;;;;;;4.9;100.0;98490;;;;
2023/03/10 02:04:03;;;;;;;1.8;1.8;;;;;;;4.9;100.0;98480;;;;
2023/03/10 02:05:01;;;;;;;1.8;1.8;;;;;;;4.9;100.0;98480;;;;
2023/03/10 02:06:03;;;;;;;1.8;1.8;;;;;;;4.9;100.0;98490;;;;
2023/03/10 02:07:02;;;;;;;1.8;1.8;;;;;;;4.9;100.0;98490;;;;
2023/03/10 02:08:01;;;;;;;1.8;1.8;;;;;;;5.2;100.0;98480;;;;
2023/03/10 02:09:01;;;;;;;1.8;1.8;;;;;;;5.2;100.0;98480;;;;
2023/03/10 02:10:01;;;;;;;1.8;1.8;;;;;;;5.2;100.0;98470;;;;
2023/03/10 02:11:00;;;;;;;1.8;1.8;;;;;;;5.2;100.0;98470;;;;
2023/03/10 02:12:02;;;;;;;1.8;1.8;;;;;;;5.0;100.0;98470;;;;
2023/03/10 02:13:00;;;;;;;1.8;1.8;;;;;;;5.0;100.0;98470;;;;
2023/03/10 02:14:03;;;;;;;1.8;1.8;;;;;;;5.1;100.0;98480;;;;
2023/03/10 02:15:00;;;;;;;1.8;1.8;;;;;;;5.1;100.0;98480;;;;
2023/03/10 02:16:00;;;;;;;1.9;1.9;;;;;;;5.1;100.0;98470;;;;
2023/03/10 02:17:01;;;;;;;1.9;1.9;;;;;;;5.1;100.0;98470;;;;
2023/03/10 02:18:02;;;;;;;1.9;1.9;;;;;;;5.0;100.0;98480;;;;
2023/03/10 02:19:03;;;;;;;1.9;1.9;;;;;;;5.0;100.0;98480;;;;
2023/03/10 02:20:06;;;;;;;1.9;1.9;;;;;;;5.0;100.0;98480;;;;
2023/03/10 02:21:10;;;;;;;1.9;1.9;;;;;;;5.0;100.0;98480;;;;
2023/03/10 02:22:05;;;;;;;1.9;1.9;;;;;;;5.1;100.0;98480;;;;
2023/03/10 02:23:00;;;;;;;1.9;1.9;;;;;;;5.1;100.0;98480;;;;
2023/03/10 02:24:10;;;;;;;1.9;1.9;;;;;;;5.0;100.0;98490;;;;
2023/03/10 02:25:10;;;;;;;1.9;1.9;;;;;;;5.0;100.0;98490;;;;
2023/03/10 02:26:06;;;;;;;1.9;1.9;;;;;;;5.1;100.0;98490;;;;
2023/03/10 02:27:10;;;;;;;1.9;1.9;;;;;;;5.1;100.0;98490;;;;
2023/03/10 02:28:00;;;;;;;1.9;1.9;;;;;;;5.2;100.0;98490;;;;
2023/03/10 02:29:03;;;;;;;1.9;1.9;;;;;;;5.2;100.0;98490;;;;
2023/03/10 02:30:08;;;;;;;1.9;1.9;;;;;;;5.2;100.0;98480;;;;
2023/03/10 02:31:01;;;;;;;1.9;1.9;;;;;;;5.2;100.0;98480;;;;
2023/03/10 02:32:00;;;;;;;1.9;1.9;;;;;;;5.2;100.0;98480;;;;
2023/03/10 02:33:03;;;;;;;1.9;1.9;;;;;;;5.2;100.0;98480;;;;
2023/03/10 02:34:00;;;;;;;1.9;1.9;;;;;;;5.2;100.0;98470;;;;
2023/03/10 02:35:01;;;;;;;1.9;1.9;;;;;;;5.2;100.0;98470;;;;
2023/03/10 02:36:02;;;;;;;1.6;1.6;;;;;;;5.2;100.0;98470;;;;
2023/03/10 02:37:00;;;;;;;1.6;1.6;;;;;;;5.2;100.0;98470;;;;
2023/03/10 02:38:00;;;;;;;1.6;1.6;;;;;;;5.2;100.0;98470;;;;
2023/03/10 02:39:00;;;;;;;1.6;1.6;;;;;;;5.2;100.0;98470;;;;
2023/03/10 02:40:01;;;;;;;1.6;1.6;;;;;;;5.3;100.0;98470;;;;
2023/03/10 02:41:00;;;;;;;1.6;1.6;;;;;;;5.3;100.0;98470;;;;
2023/03/10 02:42:00;;;;;;;1.6;1.6;;;;;;;5.4;100.0;98460;;;;
2023/03/10 02:43:02;;;;;;;1.6;1.6;;;;;;;5.4;100.0;98460;;;;
2023/03/10 02:44:02;;;;;;;1.6;1.6;;;;;;;5.3;100.0;98460;;;;
2023/03/10 02:45:02;;;;;;;1.6;1.6;;;;;;;5.3;100.0;98460;;;;
2023/03/10 02:46:02;;;;;;;1.6;1.6;;;;;;;5.3;100.0;98460;;;;
2023/03/10 02:47:01;;;;;;;1.6;1.6;;;;;;;5.3;100.0;98460;;;;
2023/03/10 02:48:00;;;;;;;1.6;1.6;;;;;;;5.3;100.0;98460;;;;
2023/03/10 02:49:01;;;;;;;1.6;1.6;;;;;;;5.3;100.0;98460;;;;
2023/03/10 02:50:01;;;;;;;1.6;1.6;;;;;;;5.3;100.0;98450;;;;
2023/03/10 02:51:01;;;;;;;1.6;1.6;;;;;;;5.3;100.0;98450;;;;
2023/03/10 02:52:01;;;;;;;1.6;1.6;;;;;;;5.4;100.0;98450;;;;
2023/03/10 02:53:10;;;;;;;1.6;1.6;;;;;;;5.4;100.0;98450;;;;
2023/03/10 02:54:01;;;;;;;1.6;1.6;;;;;;;5.4;100.0;98450;;;;
2023/03/10 02:55:00;;;;;;;1.6;1.6;;;;;;;5.4;100.0;98450;;;;
2023/03/10 02:56:00;;;;;;;1.6;1.6;;;;;;;5.3;100.0;98450;;;;
2023/03/10 02:57:00;;;;;;;1.6;1.6;;;;;;;5.3;100.0;98450;;;;
2023/03/10 02:58:01;;;;;;;1.6;1.6;;;;;;;5.4;100.0;98440;;;;
2023/03/10 02:59:00;;;;;;;1.6;1.6;;;;;;;5.4;100.0;98440;;;;
2023/03/10 03:00:01;;;;;;;1.6;1.6;;;;;;;5.3;100.0;98440;;;;
2023/03/10 03:01:00;;;;;;;1.6;1.6;;;;;;;5.3;100.0;98440;;;;
2023/03/10 03:02:00;;;;;;;1.6;1.6;;;;;;;5.3;100.0;98440;;;;
2023/03/10 03:03:00;;;;;;;1.6;1.6;;;;;;;5.3;100.0;98440;;;;
2023/03/10 03:04:00;;;;;;;1.6;1.6;;;;;;;5.3;100.0;98430;;;;
2023/03/10 03:05:00;;;;;;;1.6;1.6;;;;;;;5.3;100.0;98430;;;;
2023/03/10 03:06:00;;;;;;;1.6;1.6;;;;;;;5.2;100.0;98430;;;;
2023/03/10 03:07:00;;;;;;;1.6;1.6;;;;;;;5.2;100.0;98430;;;;
2023/03/10 03:08:00;;;;;;;1.6;1.6;;;;;;;5.2;100.0;98430;;;;
2023/03/10 03:09:00;;;;;;;1.6;1.6;;;;;;;5.2;100.0;98430;;;;
2023/03/10 03:10:00;;;;;;;1.6;1.6;;;;;;;5.2;100.0;98440;;;;
2023/03/10 03:11:01;;;;;;;1.6;1.6;;;;;;;5.2;100.0;98440;;;;
2023/03/10 03:12:00;;;;;;;1.6;1.6;;;;;;;5.1;100.0;98440;;;;
2023/03/10 03:13:00;;;;;;;1.6;1.6;;;;;;;5.1;100.0;98440;;;;
2023/03/10 03:14:00;;;;;;;1.6;1.6;;;;;;;5.1;100.0;98430;;;;
2023/03/10 03:15:00;;;;;;;1.7;1.7;;;;;;;5.1;100.0;98430;;;;
2023/03/10 03:16:00;;;;;;;1.7;1.7;;;;;;;5.1;100.0;98430;;;;
2023/03/10 03:17:00;;;;;;;1.7;1.7;;;;;;;5.1;100.0;98430;;;;
2023/03/10 03:18:00;;;;;;;1.7;1.7;;;;;;;5.1;100.0;98420;;;;
2023/03/10 03:19:00;;;;;;;1.7;1.7;;;;;;;5.1;100.0;98420;;;;
2023/03/10 03:20:00;;;;;;;1.7;1.7;;;;;;;5.2;100.0;98420;;;;
2023/03/10 03:21:02;;;;;;;1.7;1.7;;;;;;;5.2;100.0;98420;;;;
2023/03/10 03:22:00;;;;;;;1.7;1.7;;;;;;;5.1;100.0;98420;;;;
2023/03/10 03:23:00;;;;;;;1.7;1.7;;;;;;;5.1;100.0;98420;;;;
2023/03/10 03:24:00;;;;;;;1.7;1.7;;;;;;;5.2;100.0;98430;;;;
2023/03/10 03:25:00;;;;;;;1.7;1.7;;;;;;;5.2;100.0;98430;;;;
2023/03/10 03:26:00;;;;;;;1.7;1.7;;;;;;;5.2;100.0;98420;;;;
2023/03/10 03:27:00;;;;;;;1.7;1.7;;;;;;;5.2;100.0;98420;;;;
2023/03/10 03:28:00;;;;;;;1.7;1.7;;;;;;;5.1;100.0;98420;;;;
2023/03/10 03:29:00;;;;;;;1.7;1.7;;;;;;;5.1;100.0;98420;;;;
2023/03/10 03:30:00;;;;;;;1.7;1.7;;;;;;;5.3;100.0;98430;;;;
2023/03/10 03:31:00;;;;;;;1.7;1.7;;;;;;;5.3;100.0;98430;;;;
2023/03/10 03:32:00;;;;;;;1.7;1.7;;;;;;;5.2;100.0;98420;;;;
2023/03/10 03:33:02;;;;;;;1.7;1.7;;;;;;;5.2;100.0;98420;;;;
2023/03/10 03:34:00;;;;;;;1.7;1.7;;;;;;;5.3;100.0;98420;;;;
2023/03/10 03:35:01;;;;;;;1.8;1.8;;;;;;;5.3;100.0;98420;;;;
2023/03/10 03:36:01;;;;;;;1.8;1.8;;;;;;;5.4;100.0;98420;;;;
2023/03/10 03:37:00;;;;;;;1.8;1.8;;;;;;;5.4;100.0;98420;;;;
2023/03/10 03:38:01;;;;;;;1.8;1.8;;;;;;;5.3;100.0;98420;;;;
2023/03/10 03:39:01;;;;;;;1.8;1.8;;;;;;;5.3;100.0;98420;;;;
2023/03/10 03:40:00;;;;;;;1.8;1.8;;;;;;;5.2;100.0;98420;;;;
2023/03/10 03:41:00;;;;;;;1.8;1.8;;;;;;;5.2;100.0;98420;;;;
2023/03/10 03:42:00;;;;;;;1.8;1.8;;;;;;;5.2;100.0;98430;;;;
2023/03/10 03:43:01;;;;;;;1.8;1.8;;;;;;;5.2;100.0;98430;;;;
2023/03/10 03:44:00;;;;;;;1.8;1.8;;;;;;;5.2;100.0;98420;;;;
2023/03/10 03:45:00;;;;;;;1.8;1.8;;;;;;;5.2;100.0;98420;;;;
2023/03/10 03:46:00;;;;;;;1.8;1.8;;;;;;;5.2;100.0;98420;;;;
2023/03/10 03:47:00;;;;;;;1.8;1.8;;;;;;;5.2;100.0;98420;;;;
2023/03/10 03:48:00;;;;;;;1.8;1.8;;;;;;;5.1;100.0;98420;;;;
2023/03/10 03:49:00;;;;;;;1.8;1.8;;;;;;;5.1;100.0;98420;;;;
2023/03/10 03:50:00;;;;;;;1.8;1.8;;;;;;;5.1;100.0;98420;;;;
2023/03/10 03:51:01;;;;;;;1.8;1.8;;;;;;;5.1;100.0;98420;;;;
2023/03/10 03:52:00;;;;;;;1.8;1.8;;;;;;;5.0;100.0;98410;;;;
2023/03/10 03:53:01;;;;;;;1.8;1.8;;;;;;;5.0;100.0;98410;;;;
2023/03/10 03:54:00;;;;;;;1.8;1.8;;;;;;;5.0;100.0;98410;;;;
2023/03/10 03:55:01;;;;;;;1.8;1.8;;;;;;;5.0;100.0;98410;;;;
2023/03/10 03:56:00;;;;;;;1.8;1.8;;;;;;;5.1;100.0;98410;;;;
2023/03/10 03:57:00;;;;;;;1.8;1.8;;;;;;;5.1;100.0;98410;;;;
2023/03/10 03:58:00;;;;;;;1.8;1.8;;;;;;;5.0;100.0;98410;;;;
2023/03/10 03:59:00;;;;;;;1.8;1.8;;;;;;;5.0;100.0;98410;;;;
2023/03/10 04:00:01;;;;;;;1.8;1.8;;;;;;;5.0;100.0;98420;;;;
2023/03/10 04:01:00;;;;;;;1.8;1.8;;;;;;;5.0;100.0;98420;;;;
2023/03/10 04:02:00;;;;;;;1.8;1.8;;;;;;;5.0;100.0;98410;;;;
2023/03/10 04:03:01;;;;;;;1.8;1.8;;;;;;;5.0;100.0;98410;;;;
2023/03/10 04:04:00;;;;;;;1.8;1.8;;;;;;;4.9;100.0;98420;;;;
2023/03/10 04:05:00;;;;;;;1.8;1.8;;;;;;;4.9;100.0;98420;;;;
2023/03/10 04:06:00;;;;;;;1.8;1.8;;;;;;;4.9;100.0;98420;;;;
2023/03/10 04:07:01;;;;;;;1.8;1.8;;;;;;;4.9;100.0;98420;;;;
2023/03/10 04:08:00;;;;;;;1.8;1.8;;;;;;;5.0;100.0;98420;;;;
2023/03/10 04:09:00;;;;;;;1.8;1.8;;;;;;;5.0;100.0;98420;;;;
2023/03/10 04:10:00;;;;;;;1.8;1.8;;;;;;;5.0;100.0;98410;;;;
2023/03/10 04:11:00;;;;;;;1.8;1.8;;;;;;;5.0;100.0;98410;;;;
2023/03/10 04:12:00;;;;;;;1.8;1.8;;;;;;;5.0;100.0;98410;;;;
2023/03/10 04:13:00;;;;;;;1.8;1.8;;;;;;;5.0;100.0;98410;;;;
2023/03/10 04:14:00;;;;;;;1.8;1.8;;;;;;;5.1;100.0;98410;;;;
2023/03/10 04:15:00;;;;;;;1.9;1.9;;;;;;;5.1;100.0;98410;;;;
2023/03/10 04:16:00;;;;;;;1.9;1.9;;;;;;;5.1;100.0;98410;;;;
2023/03/10 04:17:01;;;;;;;1.9;1.9;;;;;;;5.1;100.0;98410;;;;
2023/03/10 04:18:00;;;;;;;1.9;1.9;;;;;;;5.2;100.0;98400;;;;
2023/03/10 04:19:00;;;;;;;1.9;1.9;;;;;;;5.2;100.0;98400;;;;
2023/03/10 04:20:07;;;;;;;1.9;1.9;;;;;;;5.3;100.0;98400;;;;
2023/03/10 04:21:00;;;;;;;1.9;1.9;;;;;;;5.3;100.0;98400;;;;
2023/03/10 04:22:00;;;;;;;1.9;1.9;;;;;;;5.2;100.0;98400;;;;
2023/03/10 04:23:00;;;;;;;1.9;1.9;;;;;;;5.2;100.0;98400;;;;
2023/03/10 04:24:00;;;;;;;1.9;1.9;;;;;;;5.2;100.0;98400;;;;
2023/03/10 04:25:01;;;;;;;1.9;1.9;;;;;;;5.2;100.0;98400;;;;
2023/03/10 04:26:00;;;;;;;1.9;1.9;;;;;;;5.2;100.0;98400;;;;
2023/03/10 04:27:00;;;;;;;1.9;1.9;;;;;;;5.2;100.0;98400;;;;
2023/03/10 04:28:00;;;;;;;1.9;1.9;;;;;;;5.1;100.0;98400;;;;
2023/03/10 04:29:00;;;;;;;1.9;1.9;;;;;;;5.1;100.0;98400;;;;
2023/03/10 04:30:00;;;;;;;1.9;1.9;;;;;;;5.2;100.0;98410;;;;
2023/03/10 04:31:00;;;;;;;1.9;1.9;;;;;;;5.2;100.0;98410;;;;
2023/03/10 04:32:06;;;;;;;1.9;1.9;;;;;;;5.2;100.0;98410;;;;
2023/03/10 04:33:01;;;;;;;1.9;1.9;;;;;;;5.2;100.0;98410;;;;
2023/03/10 04:34:00;;;;;;;1.9;1.9;;;;;;;5.2;100.0;98410;;;;
2023/03/10 04:35:00;;;;;;;1.7;1.7;;;;;;;5.2;100.0;98410;;;;
2023/03/10 04:36:02;;;;;;;1.7;1.7;;;;;;;5.4;100.0;98400;;;;
2023/03/10 04:37:00;;;;;;;1.7;1.7;;;;;;;5.4;100.0;98400;;;;
2023/03/10 04:38:00;;;;;;;1.7;1.7;;;;;;;5.3;100.0;98400;;;;
2023/03/10 04:39:00;;;;;;;1.7;1.7;;;;;;;5.3;100.0;98400;;;;
2023/03/10 04:40:01;;;;;;;1.7;1.7;;;;;;;5.3;100.0;98400;;;;
2023/03/10 04:41:01;;;;;;;1.7;1.7;;;;;;;5.3;100.0;98400;;;;
2023/03/10 04:42:00;;;;;;;1.7;1.7;;;;;;;5.4;100.0;98400;;;;
2023/03/10 04:43:01;;;;;;;1.7;1.7;;;;;;;5.4;100.0;98400;;;;
2023/03/10 04:44:00;;;;;;;1.7;1.7;;;;;;;5.3;100.0;98400;;;;
2023/03/10 04:45:00;;;;;;;1.7;1.7;;;;;;;5.3;100.0;98400;;;;
2023/03/10 04:46:00;;;;;;;1.7;1.7;;;;;;;5.4;100.0;98400;;;;
2023/03/10 04:47:00;;;;;;;1.7;1.7;;;;;;;5.4;100.0;98400;;;;
2023/03/10 04:48:00;;;;;;;1.7;1.7;;;;;;;5.4;100.0;98390;;;;
2023/03/10 04:49:00;;;;;;;1.7;1.7;;;;;;;5.4;100.0;98390;;;;
2023/03/10 04:50:00;;;;;;;1.7;1.7;;;;;;;5.4;100.0;98390;;;;
2023/03/10 04:51:02;;;;;;;1.7;1.7;;;;;;;5.4;100.0;98390;;;;
2023/03/10 04:52:00;;;;;;;1.7;1.7;;;;;;;5.5;100.0;98390;;;;
2023/03/10 04:53:00;;;;;;;1.7;1.7;;;;;;;5.5;100.0;98390;;;;
2023/03/10 04:54:00;;;;;;;1.7;1.7;;;;;;;5.4;100.0;98380;;;;
2023/03/10 04:55:00;;;;;;;1.9;1.9;;;;;;;5.4;100.0;98380;;;;
2023/03/10 04:56:01;;;;;;;1.9;1.9;;;;;;;5.4;100.0;98380;;;;
2023/03/10 04:57:00;;;;;;;1.9;1.9;;;;;;;5.4;100.0;98380;;;;
2023/03/10 04:58:00;;;;;;;1.9;1.9;;;;;;;5.3;100.0;98380;;;;
2023/03/10 04:59:00;;;;;;;1.9;1.9;;;;;;;5.3;100.0;98380;;;;
2023/03/10 05:00:06;;;;;;;1.9;1.9;;;;;;;5.3;100.0;98380;;;;
2023/03/10 05:01:03;;;;;;;1.9;1.9;;;;;;;5.3;100.0;98380;;;;
2023/03/10 05:02:00;;;;;;;1.9;1.9;;;;;;;5.3;100.0;98380;;;;
2023/03/10 05:03:00;;;;;;;1.9;1.9;;;;;;;5.3;100.0;98380;;;;
2023/03/10 05:04:01;;;;;;;1.9;1.9;;;;;;;5.3;100.0;98380;;;;
2023/03/10 05:05:00;;;;;;;1.9;1.9;;;;;;;5.3;100.0;98380;;;;
2023/03/10 05:06:00;;;;;;;1.9;1.9;;;;;;;5.2;100.0;98380;;;;
2023/03/10 05:07:00;;;;;;;1.9;1.9;;;;;;;5.2;100.0;98380;;;;
2023/03/10 05:08:00;;;;;;;1.9;1.9;;;;;;;5.3;100.0;98380;;;;
2023/03/10 05:09:03;;;;;;;1.9;1.9;;;;;;;5.3;100.0;98380;;;;
2023/03/10 05:10:00;;;;;;;1.9;1.9;;;;;;;5.2;100.0;98380;;;;
2023/03/10 05:11:04;;;;;;;1.9;1.9;;;;;;;5.2;100.0;98380;;;;
2023/03/10 05:12:00;;;;;;;1.9;1.9;;;;;;;5.2;100.0;98380;;;;
2023/03/10 05:13:00;;;;;;;1.9;1.9;;;;;;;5.2;100.0;98380;;;;
2023/03/10 05:14:01;;;;;;;1.9;1.9;;;;;;;5.3;100.0;98380;;;;
2023/03/10 05:15:00;;;;;;;1.6;1.6;;;;;;;5.3;100.0;98380;;;;
2023/03/10 05:16:00;;;;;;;1.6;1.6;;;;;;;5.3;100.0;98370;;;;
2023/03/10 05:17:00;;;;;;;1.6;1.6;;;;;;;5.3;100.0;98370;;;;
2023/03/10 05:18:00;;;;;;;1.6;1.6;;;;;;;5.2;100.0;98370;;;;
2023/03/10 05:19:00;;;;;;;1.6;1.6;;;;;;;5.2;100.0;98370;;;;
2023/03/10 05:20:00;;;;;;;1.6;1.6;;;;;;;5.3;100.0;98370;;;;
2023/03/10 05:21:00;;;;;;;1.6;1.6;;;;;;;5.3;100.0;98370;;;;
2023/03/10 05:22:00;;;;;;;1.6;1.6;;;;;;;5.5;100.0;98370;;;;
2023/03/10 05:23:00;;;;;;;1.6;1.6;;;;;;;5.5;100.0;98370;;;;
2023/03/10 05:24:00;;;;;;;1.6;1.6;;;;;;;5.6;100.0;98370;;;;
2023/03/10 05:25:00;;;;;;;1.6;1.6;;;;;;;5.6;100.0;98370;;;;
2023/03/10 05:26:02;;;;;;;1.6;1.6;;;;;;;5.6;100.0;98370;;;;
2023/03/10 05:27:01;;;;;;;1.6;1.6;;;;;;;5.6;100.0;98370;;;;
2023/03/10 05:28:00;;;;;;;1.6;1.6;;;;;;;5.8;100.0;98370;;;;
2023/03/10 05:29:00;;;;;;;1.6;1.6;;;;;;;5.8;100.0;98370;;;;
2023/03/10 05:30:00;;;;;;;1.6;1.6;;;;;;;5.9;100.0;98370;;;;
2023/03/10 05:31:00;;;;;;;1.6;1.6;;;;;;;5.9;100.0;98370;;;;
2023/03/10 05:32:00;;;;;;;1.6;1.6;;;;;;;6.1;100.0;98370;;;;
2023/03/10 05:33:01;;;;;;;1.6;1.6;;;;;;;6.1;100.0;98370;;;;
2023/03/10 05:34:00;;;;;;;1.6;1.6;;;;;;;6.1;100.0;98370;;;;
2023/03/10 05:35:01;;;;;;;1.5;1.5;;;;;;;6.1;100.0;98370;;;;
2023/03/10 05:36:03;;;;;;;1.5;1.5;;;;;;;6.0;100.0;98370;;;;
2023/03/10 05:37:00;;;;;;;1.5;1.5;;;;;;;6.0;100.0;98370;;;;
2023/03/10 05:38:00;;;;;;;1.5;1.5;;;;;;;6.3;100.0;98370;;;;
2023/03/10 05:39:00;;;;;;;1.5;1.5;;;;;;;6.3;100.0;98370;;;;
2023/03/10 05:40:00;;;;;;;1.5;1.5;;;;;;;6.2;100.0;98370;;;;
2023/03/10 05:41:00;;;;;;;1.5;1.5;;;;;;;6.2;100.0;98370;;;;
2023/03/10 05:42:00;;;;;;;1.5;1.5;;;;;;;6.3;100.0;98380;;;;
2023/03/10 05:43:01;;;;;;;1.5;1.5;;;;;;;6.3;100.0;98380;;;;
2023/03/10 05:44:00;;;;;;;1.5;1.5;;;;;;;6.2;100.0;98380;;;;
2023/03/10 05:45:00;;;;;;;1.5;1.5;;;;;;;6.2;100.0;98380;;;;
2023/03/10 05:46:00;;;;;;;1.5;1.5;;;;;;;6.2;100.0;98380;;;;
2023/03/10 05:47:00;;;;;;;1.5;1.5;;;;;;;6.2;100.0;98380;;;;
2023/03/10 05:48:00;;;;;;;1.5;1.5;;;;;;;6.3;100.0;98380;;;;
2023/03/10 05:49:00;;;;;;;1.5;1.5;;;;;;;6.3;100.0;98380;;;;
2023/03/10 05:50:00;;;;;;;1.5;1.5;;;;;;;6.2;100.0;98380;;;;
2023/03/10 05:51:02;;;;;;;1.5;1.5;;;;;;;6.2;100.0;98380;;;;
2023/03/10 05:52:00;;;;;;;1.5;1.5;;;;;;;6.2;100.0;98380;;;;
2023/03/10 05:53:00;;;;;;;1.5;1.5;;;;;;;6.2;100.0;98380;;;;
2023/03/10 05:54:00;;;;;;;1.5;1.5;;;;;;;6.3;100.0;98390;;;;
2023/03/10 05:55:00;;;;;;;1.5;1.5;;;;;;;6.3;100.0;98390;;;;
2023/03/10 05:58:00;;;;;;;1.5;1.5;;;;;;;6.4;100.0;98390;;;;
2023/03/10 05:59:00;;;;;;;1.5;1.5;;;;;;;6.4;100.0;98390;;;;
2023/03/10 06:00:00;;;;;;;1.5;1.5;;;;;;;6.3;100.0;98390;;;;
2023/03/10 06:02:00;;;;;;;1.5;1.5;;;;;;;6.3;100.0;98390;;;;
2023/03/10 06:03:01;;;;;;;1.5;1.5;;;;;;;6.3;100.0;98390;;;;
2023/03/10 06:04:00;;;;;;;1.5;1.5;;;;;;;6.3;100.0;98390;;;;
2023/03/10 06:05:00;;;;;;;1.5;1.5;;;;;;;6.3;100.0;98390;;;;
2023/03/10 06:06:00;;;;;;;1.5;1.5;;;;;;;6.4;100.0;98380;;;;
2023/03/10 06:07:00;;;;;;;1.5;1.5;;;;;;;6.4;100.0;98380;;;;
2023/03/10 06:08:00;;;;;;;1.5;1.5;;;;;;;6.5;100.0;98380;;;;
2023/03/10 06:09:00;;;;;;;1.5;1.5;;;;;;;6.5;100.0;98380;;;;
2023/03/10 06:10:00;;;;;;;1.5;1.5;;;;;;;6.5;100.0;98380;;;;
2023/03/10 06:11:00;;;;;;;1.5;1.5;;;;;;;6.5;100.0;98380;;;;
2023/03/10 06:12:00;;;;;;;1.5;1.5;;;;;;;6.4;100.0;98380;;;;
2023/03/10 06:14:00;;;;;;;1.5;1.5;;;;;;;6.6;100.0;98380;;;;
2023/03/10 06:15:00;;;;;;;1.5;1.5;;;;;;;6.6;100.0;98380;;;;
2023/03/10 06:16:01;;;;;;;1.5;1.5;;;;;;;6.6;100.0;98380;;;;
2023/03/10 06:17:00;;;;;;;1.5;1.5;;;;;;;6.6;100.0;98380;;;;
2023/03/10 06:18:00;;;;;;;1.5;1.5;;;;;;;6.5;100.0;98380;;;;
2023/03/10 06:19:00;;;;;;;1.5;1.5;;;;;;;6.5;100.0;98380;;;;
2023/03/10 06:20:01;;;;;;;1.5;1.5;;;;;;;6.7;100.0;98380;;;;
2023/03/10 07:17:01;;;;;;;1.5;1.5;;;;;;;6.8;100.0;98420;;;;
2023/03/10 07:18:00;;;;;;;1.5;1.5;;;;;;;6.8;100.0;98420;;;;
2023/03/10 07:19:00;;;;;;;1.5;1.5;;;;;;;6.8;100.0;98420;;;;
2023/03/10 07:20:00;;;;;;;1.5;1.5;;;;;;;6.9;100.0;98420;;;;
2023/03/10 07:21:00;;;;;;;1.5;1.5;;;;;;;6.9;100.0;98420;;;;
2023/03/10 07:22:00;;;;;;;1.5;1.5;;;;;;;6.8;100.0;98420;;;;
2023/03/10 07:23:00;;;;;;;1.5;1.5;;;;;;;6.8;100.0;98420;;;;
2023/03/10 07:24:00;;;;;;;1.5;1.5;;;;;;;6.9;100.0;98420;;;;
2023/03/10 07:25:00;;;;;;;1.5;1.5;;;;;;;6.9;100.0;98420;;;;
2023/03/10 07:26:00;;;;;;;1.5;1.5;;;;;;;6.8;100.0;98410;;;;
2023/03/10 07:27:01;;;;;;;1.5;1.5;;;;;;;6.8;100.0;98410;;;;
2023/03/10 07:28:00;;;;;;;1.5;1.5;;;;;;;6.8;100.0;98420;;;;
2023/03/10 07:29:01;;;;;;;1.5;1.5;;;;;;;6.8;100.0;98420;;;;
2023/03/10 07:30:00;;;;;;;1.5;1.5;;;;;;;6.8;100.0;98420;;;;
2023/03/10 07:31:02;;;;;;;1.5;1.5;;;;;;;6.8;100.0;98420;;;;
2023/03/10 07:32:00;;;;;;;1.5;1.5;;;;;;;6.8;100.0;98430;;;;
2023/03/10 07:33:00;;;;;;;1.5;1.5;;;;;;;6.8;100.0;98430;;;;
2023/03/10 07:34:01;;;;;;;1.9;1.9;;;;;;;6.7;100.0;98430;;;;
2023/03/10 07:35:00;;;;;;;1.9;1.9;;;;;;;6.7;100.0;98430;;;;